Time;durP1;ratioP1;P1;durP2;ratioP2;P2;SDS_P1;SDS_P2;PMS_P1;PMS_P2;Temp;Humidity;BMP_temperature;BMP_pressure;BME280_temperature;BME280_humidity;BME280_pressure;Samples;Min_cycle;Max_cycle;Signal;HPM_P1;HPM_P2
2021/12/02 00:00:10;;;;;;;;;9.75;6.75;;;;;10.65;60.88;99757.41;2049479;28;47641;-70
2021/12/02 00:01:11;;;;;;;;;5.00;5.00;;;;;10.66;61.23;99759.16;2049360;28;47190;-69
2021/12/02 00:02:12;;;;;;;;;5.00;3.75;;;;;10.66;61.05;99756.50;2041859;28;45332;-70
2021/12/02 00:03:12;;;;;;;;;4.00;4.00;;;;;10.65;60.95;99758.28;2050021;28;47772;-67
2021/12/02 00:04:13;;;;;;;;;6.67;6.67;;;;;10.66;60.97;99756.50;2057692;28;48572;-68
2021/12/02 00:05:14;;;;;;;;;3.00;3.00;;;;;10.66;60.96;99759.16;2054994;28;47156;-70
2021/12/02 00:06:16;;;;;;;;;2.67;2.67;;;;;10.65;60.94;99758.28;2058431;28;47396;-72
2021/12/02 00:07:17;;;;;;;;;5.25;4.00;;;;;10.65;60.92;99760.06;2057919;28;48375;-69
2021/12/02 00:08:18;;;;;;;;;5.67;4.33;;;;;10.65;61.27;99766.25;2058172;28;47027;-69
2021/12/02 00:09:19;;;;;;;;;3.00;2.00;;;;;10.64;61.16;99764.50;2057545;28;45471;-69
2021/12/02 00:10:19;;;;;;;;;5.00;5.00;;;;;10.64;60.97;99753.91;2057298;28;46424;-67
2021/12/02 00:11:20;;;;;;;;;3.33;2.00;;;;;10.63;61.04;99754.81;2051705;28;46266;-70
2021/12/02 00:12:21;;;;;;;;;4.67;4.67;;;;;10.64;61.15;99758.34;2049603;28;47146;-69
2021/12/02 00:13:26;;;;;;;;;5.33;4.00;;;;;10.63;61.10;99754.81;2057195;28;46188;-70
2021/12/02 00:14:28;;;;;;;;;4.00;3.25;;;;;10.63;61.19;99765.44;2058071;28;45458;-69
2021/12/02 00:15:38;;;;;;;;;3.50;3.50;;;;;10.62;61.22;99758.41;2056932;28;47014;-69
2021/12/02 00:16:52;;;;;;;;;3.00;3.00;;;;;10.61;61.07;99762.84;2055143;28;47243;-69
2021/12/02 00:18:07;;;;;;;;;3.25;2.75;;;;;10.61;61.29;99756.69;2058486;28;47323;-70
2021/12/02 00:21:53;;;;;;;;;3.50;3.00;;;;;10.63;61.30;99768.09;2058402;28;45394;-68
2021/12/02 00:23:29;;;;;;;;;3.75;2.50;;;;;10.63;61.21;99769.88;2057672;27;48162;-69
2021/12/02 00:24:34;;;;;;;;;2.50;2.50;;;;;10.63;61.37;99765.44;2054139;28;46284;-68
2021/12/02 00:25:35;;;;;;;;;3.00;2.75;;;;;10.63;61.43;99775.19;2064102;28;47188;-68
2021/12/02 00:26:38;;;;;;;;;4.75;4.00;;;;;10.62;61.38;99771.66;2057813;28;48487;-71
2021/12/02 00:27:41;;;;;;;;;3.00;3.00;;;;;10.60;61.12;99778.81;2057772;28;47560;-68
2021/12/02 00:28:42;;;;;;;;;2.25;2.25;;;;;10.59;61.18;99777.97;2057265;28;47967;-68
2021/12/02 00:29:45;;;;;;;;;3.50;3.50;;;;;10.58;61.20;99784.19;2057699;28;48363;-68
2021/12/02 00:30:46;;;;;;;;;4.00;4.00;;;;;10.57;61.27;99785.13;2057253;28;47471;-68
2021/12/02 00:31:49;;;;;;;;;5.00;5.00;;;;;10.57;61.39;99786.91;2050479;28;47215;-68
2021/12/02 00:32:52;;;;;;;;;4.00;4.00;;;;;10.56;61.41;99786.03;2050335;28;45659;-67
2021/12/02 00:33:57;;;;;;;;;4.25;3.25;;;;;10.56;61.48;99786.03;2050708;28;47195;-71
2021/12/02 00:34:58;;;;;;;;;4.25;4.25;;;;;10.56;61.42;99790.47;2055576;27;47349;-67
2021/12/02 00:35:59;;;;;;;;;3.00;3.00;;;;;10.56;61.47;99786.03;2050176;28;47435;-68
2021/12/02 00:37:01;;;;;;;;;3.75;3.75;;;;;10.56;61.32;99790.47;2050143;28;48434;-68
2021/12/02 00:38:02;;;;;;;;;3.00;3.00;;;;;10.57;61.69;99794.88;2050064;27;45470;-68
2021/12/02 00:39:10;;;;;;;;;4.00;3.00;;;;;10.57;61.52;99792.22;2053219;28;47008;-68
2021/12/02 00:40:11;;;;;;;;;3.50;2.50;;;;;10.56;61.62;99791.34;2058527;28;46141;-70
2021/12/02 00:41:14;;;;;;;;;5.67;5.00;;;;;10.56;61.42;99806.41;2058053;28;47251;-68
2021/12/02 00:42:15;;;;;;;;;4.00;3.00;;;;;10.55;61.51;99800.22;2054724;28;47295;-67
2021/12/02 00:43:16;;;;;;;;;5.33;5.33;;;;;10.55;61.96;99802.03;2057805;27;47146;-70
2021/12/02 00:44:18;;;;;;;;;2.75;2.75;;;;;10.55;61.89;99805.53;2058084;28;46075;-68
2021/12/02 00:45:19;;;;;;;;;3.00;3.00;;;;;10.54;61.64;99797.59;2058115;28;47877;-68
2021/12/02 00:46:22;;;;;;;;;3.75;3.00;;;;;10.54;61.81;99795.84;2082318;28;47226;-69
2021/12/02 00:47:23;;;;;;;;;4.00;3.00;;;;;10.54;62.01;99801.16;2049782;28;46464;-68
2021/12/02 00:48:24;;;;;;;;;5.00;4.00;;;;;10.54;62.32;99794.94;2057428;28;47464;-67
2021/12/02 00:49:24;;;;;;;;;3.00;2.00;;;;;10.55;62.05;99796.72;2057202;28;48240;-69
2021/12/02 00:50:25;;;;;;;;;3.33;3.33;;;;;10.55;62.29;99799.38;2057489;28;47715;-70
2021/12/02 00:51:27;;;;;;;;;3.00;3.00;;;;;10.55;62.32;99794.91;2057194;28;46451;-69
2021/12/02 00:52:28;;;;;;;;;4.00;4.00;;;;;10.55;62.42;99802.03;2057546;28;47126;-70
2021/12/02 00:53:31;;;;;;;;;4.33;4.33;;;;;10.56;62.47;99798.44;2057923;28;45419;-69
2021/12/02 00:54:32;;;;;;;;;4.00;4.00;;;;;10.56;62.41;99801.97;2057515;28;47327;-70
2021/12/02 00:55:37;;;;;;;;;4.67;3.67;;;;;10.56;62.16;99798.44;2053806;28;47339;-68
2021/12/02 00:56:39;;;;;;;;;5.50;4.00;;;;;10.56;62.13;99795.78;2051572;28;47204;-67
2021/12/02 00:57:39;;;;;;;;;4.50;4.50;;;;;10.57;62.39;99803.69;2051104;28;47262;-68
2021/12/02 00:58:40;;;;;;;;;6.00;5.00;;;;;10.57;62.20;99802.81;2057795;28;47642;-68
2021/12/02 00:59:42;;;;;;;;;5.75;4.50;;;;;10.56;62.17;99796.66;2057031;28;47402;-68
2021/12/02 01:00:43;;;;;;;;;5.00;5.00;;;;;10.56;62.17;99803.75;2057116;28;48298;-68
2021/12/02 01:01:47;;;;;;;;;3.67;3.67;;;;;10.56;62.30;99803.75;2049909;28;47447;-69
2021/12/02 01:02:49;;;;;;;;;6.25;5.00;;;;;10.55;62.35;99797.56;2049792;28;47045;-68
2021/12/02 01:03:57;;;;;;;;;5.00;5.00;;;;;10.56;62.20;99801.09;2049853;27;48243;-68
2021/12/02 01:04:59;;;;;;;;;4.25;4.25;;;;;10.56;62.38;99804.59;2049869;28;47494;-68
2021/12/02 01:06:04;;;;;;;;;5.00;5.00;;;;;10.57;62.50;99811.66;2049742;28;46290;-69
2021/12/02 01:07:05;;;;;;;;;3.75;3.75;;;;;10.57;62.02;99814.28;2049938;28;47036;-71
2021/12/02 01:08:06;;;;;;;;;4.67;3.67;;;;;10.57;62.39;99809.00;2049754;28;48379;-69
2021/12/02 01:09:09;;;;;;;;;5.00;5.00;;;;;10.57;62.54;99810.78;2049827;28;47201;-68
2021/12/02 01:10:09;;;;;;;;;2.50;2.50;;;;;10.58;62.57;99809.84;2050004;28;46458;-69
2021/12/02 01:11:10;;;;;;;;;3.67;3.67;;;;;10.57;62.36;99816.94;2049631;28;48028;-70
2021/12/02 01:12:11;;;;;;;;;5.67;4.00;;;;;10.59;62.42;99811.59;2051162;28;47109;-69
2021/12/02 01:13:11;;;;;;;;;5.33;5.33;;;;;10.58;62.48;99816.03;2058176;28;45417;-69
2021/12/02 01:14:13;;;;;;;;;8.00;5.00;;;;;10.57;62.34;99819.59;2057934;28;46006;-69
2021/12/02 01:15:14;;;;;;;;;5.50;4.00;;;;;10.58;62.35;99816.03;2058056;28;47346;-69
2021/12/02 01:16:15;;;;;;;;;6.50;5.75;;;;;10.57;62.22;99816.09;2058019;28;47811;-68
2021/12/02 01:17:16;;;;;;;;;7.00;7.00;;;;;10.57;62.32;99821.41;2054302;28;47535;-70
2021/12/02 01:18:17;;;;;;;;;6.00;5.67;;;;;10.55;62.32;99824.09;2041226;28;48628;-69
2021/12/02 01:19:18;;;;;;;;;4.50;4.50;;;;;10.56;62.22;99824.97;2049251;28;47990;-69
2021/12/02 01:20:19;;;;;;;;;7.50;7.00;;;;;10.56;62.50;99822.31;2050752;28;47188;-68
2021/12/02 01:21:23;;;;;;;;;4.67;4.67;;;;;10.56;62.77;99825.84;2057230;28;47355;-68
2021/12/02 01:22:28;;;;;;;;;5.00;5.00;;;;;10.56;62.58;99823.19;2052631;27;47266;-69
2021/12/02 01:23:31;;;;;;;;;5.25;4.25;;;;;10.57;62.52;99819.59;2049778;28;45765;-71
2021/12/02 01:24:31;;;;;;;;;6.50;6.00;;;;;10.57;62.38;99824.91;2057175;28;47248;-68
2021/12/02 01:25:32;;;;;;;;;6.00;4.67;;;;;10.57;62.62;99821.41;2057615;28;47059;-68
2021/12/02 01:26:35;;;;;;;;;5.00;4.00;;;;;10.57;62.55;99819.59;2055152;28;48489;-70
2021/12/02 01:27:36;;;;;;;;;6.75;6.75;;;;;10.58;62.51;99825.78;2056575;28;48763;-68
2021/12/02 01:28:37;;;;;;;;;8.00;8.00;;;;;10.58;62.51;99828.44;2054014;28;47228;-68
2021/12/02 01:29:39;;;;;;;;;5.50;5.50;;;;;10.58;62.54;99823.13;2049839;28;46580;-68
2021/12/02 01:30:40;;;;;;;;;7.25;7.25;;;;;10.57;62.47;99818.75;2056276;28;46624;-68
2021/12/02 01:31:42;;;;;;;;;6.25;5.25;;;;;10.59;62.86;99830.16;2055941;28;47439;-68
2021/12/02 01:32:45;;;;;;;;;7.00;7.00;;;;;10.58;63.00;99831.94;2049559;28;47615;-69
2021/12/02 01:33:46;;;;;;;;;7.80;7.80;;;;;10.58;62.83;99823.97;2055568;28;47370;-69
2021/12/02 01:34:48;;;;;;;;;7.00;7.00;;;;;10.59;62.85;99825.72;2057423;28;48404;-68
2021/12/02 01:35:54;;;;;;;;;7.00;6.50;;;;;10.59;62.65;99824.84;2057940;28;48457;-70
2021/12/02 01:36:55;;;;;;;;;6.00;6.00;;;;;10.58;62.64;99831.09;2052218;28;47375;-70
2021/12/02 01:37:56;;;;;;;;;9.00;7.33;;;;;10.58;62.64;99825.78;2049654;28;48648;-67
2021/12/02 01:38:56;;;;;;;;;8.00;7.00;;;;;10.58;62.59;99825.78;2049470;28;48591;-68
2021/12/02 01:39:58;;;;;;;;;8.25;8.00;;;;;10.58;62.62;99823.97;2053620;28;47341;-68
2021/12/02 01:41:01;;;;;;;;;6.25;6.25;;;;;10.58;62.65;99826.63;2057492;28;48071;-67
2021/12/02 01:42:01;;;;;;;;;6.75;6.75;;;;;10.58;62.31;99844.34;2056973;28;47351;-69
2021/12/02 01:43:04;;;;;;;;;6.00;6.00;;;;;10.57;62.76;99839.97;2057518;28;47144;-68
2021/12/02 01:44:11;;;;;;;;;7.50;6.75;;;;;10.58;62.71;99844.34;2058771;28;47687;-68
2021/12/02 01:45:16;;;;;;;;;12.60;8.00;;;;;10.58;62.95;99849.66;2051244;28;47415;-68
2021/12/02 01:46:26;;;;;;;;;5.40;5.40;;;;;10.59;62.78;99849.59;2065897;28;48230;-67
2021/12/02 01:47:30;;;;;;;;;7.00;7.00;;;;;10.60;62.92;99850.47;2050183;28;47838;-69
2021/12/02 01:48:37;;;;;;;;;5.60;5.60;;;;;10.60;62.85;99853.97;2050768;28;46872;-68
2021/12/02 01:49:42;;;;;;;;;9.40;8.40;;;;;10.60;62.72;99856.63;2053442;28;47655;-68
2021/12/02 01:50:43;;;;;;;;;7.00;7.00;;;;;10.61;62.80;99868.97;2058591;28;47435;-68
2021/12/02 01:51:50;;;;;;;;;5.00;5.00;;;;;10.62;62.75;99861.88;2058324;28;45389;-69
2021/12/02 01:52:59;;;;;;;;;6.80;5.60;;;;;10.62;62.49;99864.53;2058089;28;46794;-69
2021/12/02 01:54:09;;;;;;;;;9.40;6.40;;;;;10.62;62.60;99861.88;2058075;28;45338;-68
2021/12/02 01:55:16;;;;;;;;;6.80;6.80;;;;;10.63;62.80;99874.22;2049174;28;46817;-68
2021/12/02 01:56:18;;;;;;;;;5.00;5.00;;;;;10.61;62.87;99868.97;2051288;28;45554;-69
2021/12/02 01:57:29;;;;;;;;;7.00;7.00;;;;;10.63;62.84;99870.69;2058395;27;47128;-69
2021/12/02 01:58:36;;;;;;;;;7.20;5.60;;;;;10.61;62.50;99858.34;2057291;28;47288;-68
2021/12/02 01:59:38;;;;;;;;;8.50;8.25;;;;;10.61;62.99;99863.66;2057281;28;45444;-68
2021/12/02 02:00:46;;;;;;;;;6.50;6.50;;;;;10.62;62.66;99872.50;2057092;28;48252;-67
2021/12/02 02:01:51;;;;;;;;;6.25;6.25;;;;;10.61;62.67;99871.63;2052240;28;46900;-67
2021/12/02 02:02:52;;;;;;;;;5.50;5.25;;;;;10.61;62.58;99870.75;2048975;28;48259;-68
2021/12/02 02:03:55;;;;;;;;;6.50;6.50;;;;;10.61;62.81;99873.41;2049170;28;46054;-68
2021/12/02 02:05:01;;;;;;;;;5.80;5.00;;;;;10.60;62.53;99880.50;2050172;28;47216;-70
2021/12/02 02:06:04;;;;;;;;;6.75;6.00;;;;;10.60;62.85;99875.19;2049727;28;47237;-69
2021/12/02 02:07:15;;;;;;;;;5.00;5.00;;;;;10.61;62.80;99884.03;2049667;28;48164;-68
2021/12/02 02:08:20;;;;;;;;;8.00;8.00;;;;;10.61;62.86;99882.25;2049432;28;47449;-67
2021/12/02 02:09:21;;;;;;;;;7.25;7.00;;;;;10.61;62.66;99879.59;2049452;28;48184;-70
2021/12/02 02:10:22;;;;;;;;;5.67;5.67;;;;;10.63;62.72;99884.84;2049517;28;46979;-67
2021/12/02 02:11:28;;;;;;;;;6.00;6.00;;;;;10.63;62.79;99873.34;2049296;28;47420;-69
2021/12/02 02:12:29;;;;;;;;;5.00;5.00;;;;;10.63;62.94;99882.19;2049532;28;46176;-69
2021/12/02 02:13:29;;;;;;;;;5.00;5.00;;;;;10.63;62.44;99873.34;2049463;28;47152;-67
2021/12/02 02:14:30;;;;;;;;;5.00;4.33;;;;;10.63;62.77;99882.19;2049848;28;45545;-67
2021/12/02 02:15:31;;;;;;;;;6.00;6.00;;;;;10.64;62.76;99888.34;2049662;28;45535;-67
2021/12/02 02:16:32;;;;;;;;;9.33;8.00;;;;;10.64;62.56;99883.91;2049616;28;45384;-67
2021/12/02 02:17:42;;;;;;;;;5.50;5.50;;;;;10.63;62.55;99890.13;2049282;28;46357;-68
2021/12/02 02:18:42;;;;;;;;;6.25;6.25;;;;;10.64;62.60;99889.22;2048922;28;47629;-69
2021/12/02 02:19:43;;;;;;;;;6.00;6.00;;;;;10.64;62.78;99891.00;2049526;28;47237;-70
2021/12/02 02:20:58;;;;;;;;;6.20;6.20;;;;;10.63;62.94;99906.06;2049167;28;47095;-67
2021/12/02 02:21:59;;;;;;;;;4.75;4.75;;;;;10.64;62.42;99897.19;2049715;28;47149;-69
2021/12/02 02:23:00;;;;;;;;;5.25;5.25;;;;;10.65;62.63;99903.34;2049172;28;47598;-68
2021/12/02 02:24:01;;;;;;;;;7.00;5.33;;;;;10.64;62.41;99897.19;2049588;28;46384;-69
2021/12/02 02:25:01;;;;;;;;;6.50;5.75;;;;;10.64;62.41;99901.63;2049223;28;47183;-69
2021/12/02 02:26:04;;;;;;;;;7.00;7.00;;;;;10.65;62.69;99903.34;2040856;28;45491;-68
2021/12/02 02:27:05;;;;;;;;;5.00;5.00;;;;;10.64;62.84;99906.94;2033066;28;47373;-69
2021/12/02 02:28:05;;;;;;;;;5.75;5.50;;;;;10.64;62.73;99905.13;2048847;28;47387;-68
2021/12/02 02:29:09;;;;;;;;;5.33;5.33;;;;;10.65;62.63;99909.53;2048485;28;47311;-69
2021/12/02 02:30:11;;;;;;;;;9.00;7.00;;;;;10.65;62.74;99906.88;2048893;28;47256;-68
2021/12/02 02:31:11;;;;;;;;;6.75;6.25;;;;;10.66;62.67;99907.72;2049134;28;48173;-69
2021/12/02 02:32:12;;;;;;;;;6.00;5.00;;;;;10.66;62.74;99915.69;2048991;28;47535;-67
2021/12/02 02:33:13;;;;;;;;;6.33;5.00;;;;;10.67;62.48;99914.78;2048600;28;47078;-69
2021/12/02 02:34:14;;;;;;;;;7.00;6.00;;;;;10.67;62.33;99915.66;2059160;27;47562;-67
2021/12/02 02:35:15;;;;;;;;;7.00;7.00;;;;;10.67;62.42;99918.31;2052242;28;48208;-68
2021/12/02 02:36:17;;;;;;;;;6.67;6.67;;;;;10.67;62.55;99917.44;2049686;28;47248;-68
2021/12/02 02:37:18;;;;;;;;;5.80;5.00;;;;;10.67;62.29;99913.03;2049079;28;47556;-68
2021/12/02 02:38:18;;;;;;;;;3.67;3.67;;;;;10.67;62.54;99917.44;2050019;28;47267;-68
2021/12/02 02:39:20;;;;;;;;;3.33;3.33;;;;;10.66;62.91;99916.56;2057393;28;47569;-69
2021/12/02 02:40:21;;;;;;;;;7.00;6.00;;;;;10.66;62.37;99919.22;2057427;28;47393;-72
2021/12/02 02:41:24;;;;;;;;;4.00;4.00;;;;;10.65;62.24;99916.63;2057368;28;48634;-68
2021/12/02 02:42:25;;;;;;;;;5.50;5.50;;;;;10.65;62.39;99916.63;2057602;28;47151;-68
2021/12/02 02:43:27;;;;;;;;;4.00;4.00;;;;;10.66;62.46;99924.53;2057163;28;46734;-70
2021/12/02 02:44:31;;;;;;;;;3.75;3.75;;;;;10.66;62.38;99926.31;2057115;28;47571;-68
2021/12/02 02:45:32;;;;;;;;;4.00;4.00;;;;;10.65;62.30;99922.78;2049099;28;45298;-68
2021/12/02 02:46:38;;;;;;;;;2.00;2.00;;;;;10.64;62.41;99925.50;2079025;28;46870;-68
2021/12/02 02:47:40;;;;;;;;;5.50;5.50;;;;;10.64;62.23;99926.38;2049719;28;46187;-68
2021/12/02 02:48:40;;;;;;;;;3.75;3.75;;;;;10.64;62.60;99926.38;2056447;28;47113;-69
2021/12/02 02:49:41;;;;;;;;;4.00;4.00;;;;;10.64;62.31;99922.84;2057350;28;45220;-68
2021/12/02 02:50:41;;;;;;;;;3.33;3.33;;;;;10.64;62.24;99928.16;2057546;28;47250;-70
2021/12/02 02:51:43;;;;;;;;;4.00;4.00;;;;;10.63;62.31;99932.59;2057498;28;47528;-67
2021/12/02 02:52:45;;;;;;;;;5.50;5.50;;;;;10.63;62.13;99927.28;2057090;28;48291;-69
2021/12/02 02:53:55;;;;;;;;;7.00;6.00;;;;;10.62;62.45;99933.50;2049636;28;47362;-68
2021/12/02 02:54:56;;;;;;;;;5.00;4.75;;;;;10.61;62.43;99934.44;2046075;28;47278;-67
2021/12/02 02:56:15;;;;;;;;;5.00;5.00;;;;;10.61;62.29;99927.34;2048774;28;46971;-71
2021/12/02 02:57:19;;;;;;;;;4.50;4.00;;;;;10.61;62.42;99935.31;2049649;28;46559;-68
2021/12/02 02:59:41;;;;;;;;;5.00;5.00;;;;;10.61;62.40;99935.31;2057189;28;48186;-68
2021/12/02 03:00:54;;;;;;;;;3.50;3.50;;;;;10.62;62.12;99936.16;2057232;28;47613;-69
2021/12/02 03:03:25;;;;;;;;;6.25;4.00;;;;;10.63;62.02;99929.06;2057418;28;45422;-69
2021/12/02 03:04:45;;;;;;;;;3.75;3.75;;;;;10.64;62.21;99930.81;2057540;28;48899;-69
2021/12/02 03:07:00;;;;;;;;;3.50;3.50;;;;;10.64;62.17;99930.81;2058878;28;47175;-69
2021/12/02 03:08:11;;;;;;;;;4.00;4.00;;;;;10.63;61.99;99932.59;2058146;28;47122;-70
2021/12/02 03:09:25;;;;;;;;;4.25;3.25;;;;;10.64;62.05;99930.81;2057831;28;46726;-68
2021/12/02 03:11:38;;;;;;;;;4.75;4.00;;;;;10.63;61.87;99940.56;2057704;28;46417;-69
2021/12/02 03:12:53;;;;;;;;;2.50;2.50;;;;;10.62;61.65;99944.13;2053405;28;47514;-68
2021/12/02 03:13:55;;;;;;;;;4.00;4.00;;;;;10.60;61.90;99945.97;2052527;28;47360;-70
2021/12/02 03:17:20;;;;;;;;;3.25;3.00;;;;;10.57;61.88;99944.31;2058555;28;48315;-69
2021/12/02 03:18:21;;;;;;;;;3.33;2.00;;;;;10.56;61.71;99950.53;2058835;28;48195;-69
2021/12/02 03:19:26;;;;;;;;;2.00;2.00;;;;;10.56;61.59;99954.97;2057763;28;46055;-70
2021/12/02 03:20:27;;;;;;;;;4.00;3.00;;;;;10.57;61.73;99962.00;2057898;28;48422;-69
2021/12/02 03:21:28;;;;;;;;;3.00;3.00;;;;;10.56;61.68;99953.19;2057734;28;47001;-70
2021/12/02 03:22:29;;;;;;;;;3.00;3.00;;;;;10.57;61.63;99959.34;2057850;28;47158;-68
2021/12/02 03:23:30;;;;;;;;;3.00;3.00;;;;;10.56;61.42;99961.13;2058164;28;47452;-69
2021/12/02 03:24:30;;;;;;;;;3.00;3.00;;;;;10.55;61.50;99955.88;2058623;28;47283;-68
2021/12/02 03:25:31;;;;;;;;;2.00;2.00;;;;;10.54;61.60;99959.44;2057565;28;47421;-69
2021/12/02 03:26:32;;;;;;;;;3.00;2.33;;;;;10.54;61.17;99957.69;2058034;28;48156;-69
2021/12/02 03:27:32;;;;;;;;;4.00;4.00;;;;;10.53;61.22;99961.22;2058405;28;48092;-69
2021/12/02 03:28:33;;;;;;;;;2.67;2.67;;;;;10.53;61.25;99965.66;2058728;28;46641;-71
2021/12/02 03:29:34;;;;;;;;;2.33;2.33;;;;;10.53;61.35;99971.81;2058512;28;45011;-70
2021/12/02 03:30:34;;;;;;;;;1.00;1.00;;;;;10.54;61.45;99973.59;2057951;28;47556;-67
2021/12/02 03:31:35;;;;;;;;;4.00;4.00;;;;;10.54;61.29;99970.03;2057764;28;47606;-68
2021/12/02 03:32:37;;;;;;;;;4.67;2.00;;;;;10.52;61.20;99975.41;2058913;28;45220;-71
2021/12/02 03:33:37;;;;;;;;;2.00;2.00;;;;;10.52;61.01;99972.75;2058182;28;47118;-69
2021/12/02 03:34:40;;;;;;;;;2.67;2.00;;;;;10.53;61.04;99973.63;2058397;28;47271;-70
2021/12/02 03:35:40;;;;;;;;;2.25;2.25;;;;;10.53;61.38;99973.63;2058104;28;46183;-69
2021/12/02 03:36:41;;;;;;;;;2.00;2.00;;;;;10.53;61.28;99974.47;2054451;28;47735;-67
2021/12/02 03:37:41;;;;;;;;;2.33;2.33;;;;;10.52;61.01;99966.56;2050815;28;48137;-69
2021/12/02 03:38:42;;;;;;;;;3.00;1.67;;;;;10.52;60.85;99969.22;2057149;28;45644;-67
2021/12/02 03:39:44;;;;;;;;;4.50;2.00;;;;;10.50;60.92;99971.06;2058989;27;47262;-69
2021/12/02 03:40:44;;;;;;;;;2.25;2.25;;;;;10.50;61.13;99971.94;2058711;28;47173;-69
2021/12/02 03:41:46;;;;;;;;;2.00;2.00;;;;;10.48;60.52;99972.91;2058361;28;47498;-68
2021/12/02 03:42:49;;;;;;;;;2.50;2.50;;;;;10.47;60.91;99973.84;2058291;28;45217;-68
2021/12/02 03:43:50;;;;;;;;;1.75;1.75;;;;;10.45;60.80;99965.94;2059012;28;47489;-68
2021/12/02 03:44:50;;;;;;;;;2.00;2.00;;;;;10.46;60.64;99975.63;2058379;28;47225;-68
2021/12/02 03:45:51;;;;;;;;;1.00;1.00;;;;;10.46;60.47;99975.63;2067935;28;47250;-68
2021/12/02 03:46:53;;;;;;;;;3.67;3.00;;;;;10.47;60.80;99979.13;2061732;28;46278;-69
2021/12/02 03:47:53;;;;;;;;;1.00;1.00;;;;;10.47;60.52;99965.88;2056178;27;47283;-68
2021/12/02 03:48:55;;;;;;;;;1.00;1.00;;;;;10.47;60.84;99976.50;2050564;28;48351;-69
2021/12/02 03:49:56;;;;;;;;;0.75;0.75;;;;;10.47;60.58;99979.13;2050589;28;48337;-69
2021/12/02 03:50:58;;;;;;;;;3.33;2.00;;;;;10.45;60.49;99981.84;2050385;28;47601;-68
2021/12/02 03:51:58;;;;;;;;;1.25;1.00;;;;;10.45;60.43;99978.31;2050758;28;47034;-69
2021/12/02 03:52:59;;;;;;;;;2.00;1.00;;;;;10.44;60.42;99988.06;2050307;28;46488;-70
2021/12/02 03:54:00;;;;;;;;;1.00;1.00;;;;;10.44;60.48;99987.22;2050586;28;48467;-68
2021/12/02 03:55:00;;;;;;;;;2.00;1.00;;;;;10.44;60.54;99992.50;2050238;28;46453;-70
2021/12/02 03:56:03;;;;;;;;;1.67;1.67;;;;;10.43;60.06;99991.66;2050531;28;47472;-68
2021/12/02 03:57:04;;;;;;;;;1.00;1.00;;;;;10.43;60.30;99993.44;2050368;28;47218;-68
2021/12/02 03:58:05;;;;;;;;;1.00;1.00;;;;;10.43;60.28;99993.44;2050588;28;47138;-68
2021/12/02 03:59:05;;;;;;;;;1.00;1.00;;;;;10.43;60.42;99996.94;2048779;28;46678;-69
2021/12/02 04:00:08;;;;;;;;;0.33;0.33;;;;;10.43;60.59;100006.69;2048426;28;48295;-69
2021/12/02 04:01:09;;;;;;;;;1.25;0.25;;;;;10.43;60.23;99991.66;2057635;28;47990;-70
2021/12/02 04:02:10;;;;;;;;;0.00;0.00;;;;;10.43;59.93;100002.25;2058866;28;47720;-68
2021/12/02 04:03:10;;;;;;;;;3.00;1.00;;;;;10.42;59.71;99999.66;2050805;28;46928;-69
2021/12/02 04:04:10;;;;;;;;;0.33;0.33;;;;;10.42;59.69;99999.66;2050561;28;46817;-68
2021/12/02 04:05:11;;;;;;;;;0.67;0.00;;;;;10.42;59.52;100004.97;2050091;28;47459;-69
2021/12/02 04:06:12;;;;;;;;;0.00;0.00;;;;;10.40;59.64;100012.06;2050256;28;48291;-69
2021/12/02 04:07:13;;;;;;;;;0.00;0.00;;;;;10.41;59.44;100011.16;2050182;28;47316;-68
2021/12/02 04:08:13;;;;;;;;;3.00;1.33;;;;;10.38;59.58;100000.66;2049754;28;47085;-69
2021/12/02 04:09:19;;;;;;;;;2.00;0.67;;;;;10.36;59.47;100006.00;2049348;28;47699;-70
2021/12/02 04:10:21;;;;;;;;;1.50;0.00;;;;;10.34;59.22;99999.88;2050379;28;45456;-69
2021/12/02 04:11:40;;;;;;;;;0.00;0.00;;;;;10.33;59.25;99998.16;2049881;28;47380;-68
2021/12/02 04:13:26;;;;;;;;;0.00;0.00;;;;;10.31;59.31;100005.31;2050150;28;47456;-69
2021/12/02 04:15:12;;;;;;;;;0.75;0.75;;;;;10.27;59.45;99993.03;2049502;28;46635;-68
2021/12/02 04:16:18;;;;;;;;;2.25;0.75;;;;;10.25;59.15;99998.38;2049666;28;47353;-68
2021/12/02 04:17:28;;;;;;;;;0.00;0.00;;;;;10.25;59.11;99997.53;2050145;28;48751;-68
2021/12/02 04:18:29;;;;;;;;;1.00;1.00;;;;;10.23;59.11;100005.53;2050002;28;47627;-69
2021/12/02 04:19:29;;;;;;;;;0.33;0.33;;;;;10.21;59.08;99991.47;2050133;28;48264;-69
2021/12/02 04:20:30;;;;;;;;;0.67;0.67;;;;;10.21;59.11;100001.16;2050090;28;47540;-69
2021/12/02 04:21:31;;;;;;;;;1.67;0.00;;;;;10.21;59.21;100003.81;2050069;28;48090;-68
2021/12/02 04:22:31;;;;;;;;;0.00;0.00;;;;;10.20;59.17;99997.66;2050030;28;48344;-71
2021/12/02 04:23:32;;;;;;;;;0.00;0.00;;;;;10.18;58.71;99993.31;2049959;28;46561;-69
2021/12/02 04:24:33;;;;;;;;;0.00;0.00;;;;;10.18;58.94;100002.13;2050132;28;47027;-70
2021/12/02 04:25:33;;;;;;;;;2.00;0.00;;;;;10.16;58.51;100003.06;2050275;28;45463;-70
2021/12/02 04:26:34;;;;;;;;;1.00;1.00;;;;;10.14;58.64;100002.25;2050313;27;48018;-69
2021/12/02 04:27:35;;;;;;;;;1.00;1.00;;;;;10.11;58.78;100007.66;2050152;28;45237;-70
2021/12/02 04:28:35;;;;;;;;;1.67;0.33;;;;;10.09;58.66;100006.84;2050000;28;48066;-70
2021/12/02 04:29:36;;;;;;;;;2.00;2.00;;;;;10.08;58.47;100008.63;2050266;28;46694;-71
2021/12/02 04:30:36;;;;;;;;;0.00;0.00;;;;;10.07;58.68;100014.00;2049869;28;47270;-71
2021/12/02 04:31:39;;;;;;;;;0.00;0.00;;;;;10.06;58.41;100006.94;2050116;28;47400;-70
2021/12/02 04:32:40;;;;;;;;;0.75;0.75;;;;;10.05;58.24;100015.81;2049944;28;47470;-71
2021/12/02 04:33:41;;;;;;;;;1.00;0.00;;;;;10.02;57.90;100012.31;2050044;28;47329;-69
2021/12/02 04:34:41;;;;;;;;;0.00;0.00;;;;;10.00;58.06;100010.66;2054574;27;47168;-69
2021/12/02 04:35:42;;;;;;;;;2.00;0.00;;;;;9.97;57.62;100011.59;2050281;28;45458;-68
2021/12/02 04:36:43;;;;;;;;;0.00;0.00;;;;;9.95;57.64;100018.75;2049643;28;48147;-69
2021/12/02 04:37:44;;;;;;;;;1.00;1.00;;;;;9.91;57.59;100022.41;2050417;28;47383;-69
2021/12/02 04:38:45;;;;;;;;;0.75;0.00;;;;;9.89;57.74;100023.34;2049513;28;48280;-68
2021/12/02 04:39:46;;;;;;;;;1.00;1.00;;;;;9.87;57.59;100030.47;2053339;28;48007;-69
2021/12/02 04:40:46;;;;;;;;;0.00;0.00;;;;;9.86;57.83;100034.03;2057294;28;48215;-69
2021/12/02 04:41:47;;;;;;;;;0.00;0.00;;;;;9.84;58.15;100033.22;2054672;28;46562;-70
2021/12/02 04:42:49;;;;;;;;;1.00;1.00;;;;;9.82;58.00;100030.63;2056279;28;45500;-70
2021/12/02 04:43:49;;;;;;;;;1.00;1.00;;;;;9.80;57.59;100037.75;2050094;28;48294;-67
2021/12/02 04:44:50;;;;;;;;;1.00;1.00;;;;;9.79;57.65;100046.63;2054831;28;48534;-68
2021/12/02 04:45:52;;;;;;;;;0.67;0.67;;;;;9.77;57.69;100040.47;2065738;28;45218;-68
2021/12/02 04:46:53;;;;;;;;;0.25;0.25;;;;;9.75;57.78;100039.66;2054434;28;46286;-68
2021/12/02 04:47:53;;;;;;;;;1.00;1.00;;;;;9.72;57.59;100045.91;2057709;28;46725;-68
2021/12/02 04:48:55;;;;;;;;;2.00;2.00;;;;;9.71;57.62;100043.31;2057134;28;47790;-68
2021/12/02 04:49:55;;;;;;;;;1.00;1.00;;;;;9.69;57.81;100037.19;2057562;28;48201;-70
2021/12/02 04:50:56;;;;;;;;;1.00;1.00;;;;;9.68;57.85;100035.47;2057947;28;48130;-71
2021/12/02 04:51:56;;;;;;;;;1.67;1.00;;;;;9.65;57.69;100039.03;2050753;28;47117;-69
2021/12/02 04:52:56;;;;;;;;;1.00;1.00;;;;;9.64;57.77;100047.91;2049819;28;47329;-69
2021/12/02 04:53:57;;;;;;;;;1.00;1.00;;;;;9.62;57.51;100047.09;2050073;28;47557;-70
2021/12/02 04:54:57;;;;;;;;;3.00;1.00;;;;;9.60;57.64;100046.28;2055082;28;47486;-70
2021/12/02 04:55:58;;;;;;;;;1.00;1.00;;;;;9.58;57.89;100053.41;2048576;28;47126;-68
2021/12/02 04:56:59;;;;;;;;;1.00;1.00;;;;;9.57;57.89;100053.44;2049418;28;48540;-69
2021/12/02 04:57:59;;;;;;;;;1.33;1.33;;;;;9.56;57.77;100051.72;2053923;28;48500;-69
2021/12/02 04:59:00;;;;;;;;;1.00;1.00;;;;;9.54;57.78;100043.81;2057697;28;46776;-69
2021/12/02 05:00:03;;;;;;;;;3.00;2.00;;;;;9.54;57.81;100059.69;2058028;28;46917;-69
2021/12/02 05:01:03;;;;;;;;;1.50;1.00;;;;;9.53;57.83;100054.41;2057123;28;46965;-68
2021/12/02 05:02:04;;;;;;;;;2.00;2.00;;;;;9.53;57.98;100060.63;2049164;28;47020;-69
2021/12/02 05:03:05;;;;;;;;;1.67;1.00;;;;;9.52;58.17;100063.28;2051186;28;47991;-68
2021/12/02 05:04:05;;;;;;;;;1.00;1.00;;;;;9.51;57.92;100073.00;2051383;28;47156;-68
2021/12/02 05:05:07;;;;;;;;;0.00;0.00;;;;;9.49;57.76;100063.38;2052869;28;47171;-68